Map

Track Data

SID SEASON NUMBER BASIN SUBBASIN NAME ISO_TIME NATURE LAT LON WMO_WIND WMO_PRES WMO_AGENCY TRACK_TYPE DIST2LAND LANDFALL IFLAG USA_AGENCY USA_ATCF_ID USA_LAT USA_LON USA_RECORD USA_STATUS USA_WIND USA_PRES USA_SSHS USA_R34_NE USA_R34_SE USA_R34_SW USA_R34_NW USA_R50_NE USA_R50_SE USA_R50_SW USA_R50_NW USA_R64_NE USA_R64_SE USA_R64_SW USA_R64_NW USA_POCI USA_ROCI USA_RMW USA_EYE TOKYO_LAT TOKYO_LON TOKYO_GRADE TOKYO_WIND TOKYO_PRES TOKYO_R50_DIR TOKYO_R50_LONG TOKYO_R50_SHORT TOKYO_R30_DIR TOKYO_R30_LONG TOKYO_R30_SHORT TOKYO_LAND CMA_LAT CMA_LON CMA_CAT CMA_WIND CMA_PRES HKO_LAT HKO_LON HKO_CAT HKO_WIND HKO_PRES NEWDELHI_LAT NEWDELHI_LON NEWDELHI_GRADE NEWDELHI_WIND NEWDELHI_PRES NEWDELHI_CI NEWDELHI_DP NEWDELHI_POCI REUNION_LAT REUNION_LON REUNION_TYPE REUNION_WIND REUNION_PRES REUNION_TNUM REUNION_CI REUNION_RMW REUNION_R34_NE REUNION_R34_SE REUNION_R34_SW REUNION_R34_NW REUNION_R50_NE REUNION_R50_SE REUNION_R50_SW REUNION_R50_NW REUNION_R64_NE REUNION_R64_SE REUNION_R64_SW REUNION_R64_NW BOM_LAT BOM_LON BOM_TYPE BOM_WIND BOM_PRES BOM_TNUM BOM_CI BOM_RMW BOM_R34_NE BOM_R34_SE BOM_R34_SW BOM_R34_NW BOM_R50_NE BOM_R50_SE BOM_R50_SW BOM_R50_NW BOM_R64_NE BOM_R64_SE BOM_R64_SW BOM_R64_NW BOM_ROCI BOM_POCI BOM_EYE BOM_POS_METHOD BOM_PRES_METHOD NADI_LAT NADI_LON NADI_CAT NADI_WIND NADI_PRES WELLINGTON_LAT WELLINGTON_LON WELLINGTON_WIND WELLINGTON_PRES DS824_LAT DS824_LON DS824_STAGE DS824_WIND DS824_PRES TD9636_LAT TD9636_LON TD9636_STAGE TD9636_WIND TD9636_PRES TD9635_LAT TD9635_LON TD9635_WIND TD9635_PRES TD9635_ROCI NEUMANN_LAT NEUMANN_LON NEUMANN_CLASS NEUMANN_WIND NEUMANN_PRES MLC_LAT MLC_LON MLC_CLASS MLC_WIND MLC_PRES USA_GUST BOM_GUST BOM_GUST_PER REUNION_GUST REUNION_GUST_PER USA_SEAHGT USA_SEARAD_NE USA_SEARAD_SE USA_SEARAD_SW USA_SEARAD_NW STORM_SPEED STORM_DIR
1976197N11252 1976 71 EP MM CELESTE 1976-07-14 12:00:00 TS 11.0000 -108.260 25 hurdat_epa main 966 966 O________OO___ hurdat_epa EP031976 11.0000 -108.200 TD 25 -1 11.0000 -108.200 TC 25 11.0000 -108.500 1 30 13 261
1976197N11252 1976 71 EP MM CELESTE 1976-07-14 15:00:00 TS 10.8989 -108.890 main 1011 1011 P________PP___ EP031976 10.9028 -108.850 TD 25 -1 10.9028 -108.850 TC 25 10.8834 -109.050 1 30 13 261
1976197N11252 1976 71 EP MM CELESTE 1976-07-14 18:00:00 TS 10.7946 -109.522 25 hurdat_epa main 1059 1059 O________OP___ hurdat_epa EP031976 10.8000 -109.500 TD 25 -1 10.8000 -109.500 TC 25 10.7730 -109.611 1 30 13 260
1976197N11252 1976 71 EP MM CELESTE 1976-07-14 21:00:00 TS 10.6891 -110.158 main 1114 1114 P________PP___ EP031976 10.6924 -110.150 TD 27 -1 10.6924 -110.150 TC 27 10.6762 -110.190 1 30 13 261
1976197N11252 1976 71 EP MM CELESTE 1976-07-15 00:00:00 TS 10.6000 -110.800 30 hurdat_epa main 1158 1158 O________OO___ hurdat_epa EP031976 10.6000 -110.800 TD 30 -1 10.6000 -110.800 TC 30 10.6000 -110.800 1 30 13 263
1976197N11252 1976 71 EP MM CELESTE 1976-07-15 03:00:00 TS 10.5377 -111.443 main 1204 1204 P________PP___ EP031976 10.5348 -111.442 TD 30 -1 10.5348 -111.442 TC 30 10.5492 -111.446 1 30 13 266
1976197N11252 1976 71 EP MM CELESTE 1976-07-15 06:00:00 TS 10.5040 -112.104 30 hurdat_epa main 1250 1250 O________OP___ hurdat_epa EP031976 10.5000 -112.100 TD 30 -1 10.5000 -112.100 TC 30 10.5198 -112.120 1 30 13 268
1976197N11252 1976 71 EP MM CELESTE 1976-07-15 09:00:00 TS 10.4950 -112.802 main 1298 1298 P________PP___ EP031976 10.4924 -112.800 TD 30 -1 10.4924 -112.800 TC 30 10.5054 -112.809 1 30 14 270
1976197N11252 1976 71 EP MM CELESTE 1976-07-15 12:00:00 TS 10.5000 -113.500 30 hurdat_epa main 1349 1349 O________OO___ hurdat_epa EP031976 10.5000 -113.500 TD 30 -1 10.5000 -113.500 TC 30 10.5000 -113.500 1 30 13 270
1976197N11252 1976 71 EP MM CELESTE 1976-07-15 15:00:00 TS 10.4941 -114.149 main 1394 1394 P________PP___ EP031976 10.4998 -114.150 TD 32 -1 10.4998 -114.150 TC 32 10.4716 -114.143 1 33 13 270
1976197N11252 1976 71 EP MM CELESTE 1976-07-15 18:00:00 TS 10.4907 -114.798 35 hurdat_epa main 1448 1448 O________OP___ hurdat_epa EP031976 10.5000 -114.800 TS 35 0 10.5000 -114.800 TC 35 10.4536 -114.791 1 37 13 269
1976197N11252 1976 71 EP MM CELESTE 1976-07-15 21:00:00 TS 10.4796 -115.470 main 1502 1502 P________PP___ EP031976 10.4847 -115.470 TS 40 0 10.4847 -115.470 TC 40 10.4589 -115.468 1 41 14 270
1976197N11252 1976 71 EP MM CELESTE 1976-07-16 00:00:00 TS 10.5000 -116.200 45 hurdat_epa main 1536 1536 O________OO___ hurdat_epa EP031976 10.5000 -116.200 TS 45 0 10.5000 -116.200 TC 45 10.5000 -116.200 2 45 15 274
1976197N11252 1976 71 EP MM CELESTE 1976-07-16 03:00:00 TS 10.5823 -117.025 main 1564 1564 P________PP___ EP031976 10.5774 -117.020 TS 45 0 10.5774 -117.020 TC 45 10.6018 -117.045 2 45 17 277
1976197N11252 1976 71 EP MM CELESTE 1976-07-16 06:00:00 TS 10.7072 -117.908 45 hurdat_epa main 1602 1602 O________OP___ hurdat_epa EP031976 10.7000 -117.900 TS 45 0 10.7000 -117.900 TC 45 10.7358 -117.942 2 45 18 279
1976197N11252 1976 71 EP MM CELESTE 1976-07-16 09:00:00 TS 10.8614 -118.832 main 1635 1635 P________PP___ EP031976 10.8576 -118.830 TS 45 0 10.8576 -118.830 TC 45 10.8768 -118.842 2 45 18 279
1976197N11252 1976 71 EP MM CELESTE 1976-07-16 12:00:00 TS 11.0000 -119.700 45 hurdat_epa main 1683 1683 O________OO___ hurdat_epa EP031976 11.0000 -119.700 TS 45 0 11.0000 -119.700 TC 45 11.0000 -119.700 2 45 14 279
1976197N11252 1976 71 EP MM CELESTE 1976-07-16 15:00:00 TS 11.0735 -120.259 main 1714 1714 P________PP___ EP031976 11.0704 -120.223 TS 45 0 11.0704 -120.223 TC 45 11.0858 -120.402 2 45 13 275
1976197N11252 1976 71 EP MM CELESTE 1976-07-16 18:00:00 TS 11.1099 -121.013 45 hurdat_epa main 1762 1762 O________OP___ hurdat_epa EP031976 11.1000 -121.000 TS 45 0 11.1000 -121.000 TC 45 11.1496 -121.063 2 45 22 272
1976197N11252 1976 71 EP MM CELESTE 1976-07-16 21:00:00 TS 11.1321 -122.507 main 1871 1871 P________PP___ EP031976 11.1179 -122.698 TS 45 0 11.1179 -122.698 TC 45 11.1888 -121.742 2 45 30 270
1976197N11252 1976 71 EP MM CELESTE 1976-07-17 00:00:00 TS 11.1200 -124.100 45 hurdat_epa main 1979 1979 O________OO___ hurdat_epa EP031976 11.1000 -124.500 TS 45 0 11.1000 -124.500 TC 45 11.2000 -122.500 2 45 26 269
1976197N11252 1976 71 EP MM CELESTE 1976-07-17 03:00:00 TS 11.0713 -125.181 main 2055 2055 P________PP___ EP031976 11.0483 -125.620 TS 45 0 11.0483 -125.620 TC 45 11.1630 -123.427 2 41 20 267
1976197N11252 1976 71 EP MM CELESTE 1976-07-17 06:00:00 TS 11.0201 -126.087 45 hurdat_epa main 2128 2128 O________OP___ hurdat_epa EP031976 11.0000 -126.500 TS 45 0 11.0000 -126.500 TC 45 11.1007 -124.434 2 37 19 267
1976197N11252 1976 71 EP MM CELESTE 1976-07-17 09:00:00 TS 10.9893 -127.067 main 2202 2202 P________PP___ EP031976 10.9772 -127.465 TS 37 0 10.9772 -127.465 TC 37 11.0379 -125.474 2 33 19 269
1976197N11252 1976 71 EP MM CELESTE 1976-07-17 12:00:00 TS 11.0000 -128.020 30 hurdat_epa main 2271 2271 O________OO___ hurdat_epa EP031976 11.0000 -128.400 TD 30 -1 11.0000 -128.400 TC 30 11.0000 -126.500 1 30 19 273
1976197N11252 1976 71 EP MM CELESTE 1976-07-17 15:00:00 TS 11.0796 -129.046 main 2342 2342 P________PP___ EP031976 11.1004 -129.442 TD 30 -1 11.1004 -129.442 TC 30 10.9960 -127.463 1 30 18 275
1976197N11252 1976 71 EP MM CELESTE 1976-07-17 18:00:00 TS 11.1648 -129.841 30 hurdat_epa main 2399 2399 O________OP___ hurdat_epa EP031976 11.2000 -130.200 TD 30 -1 11.2000 -130.200 TC 30 11.0240 -128.403 1 30 10 275
1976197N11252 1976 71 EP MM CELESTE 1976-07-17 21:00:00 TS 11.1654 -130.029 main 2415 2415 P________PP___ EP031976 11.1842 -130.208 TD 30 -1 11.1842 -130.208 TC 30 11.0899 -129.316 1 30 4 276
1976197N11252 1976 71 EP MM CELESTE 1976-07-18 00:00:00 TS 11.2000 -130.200 30 hurdat_epa main 2431 2431 O________OO___ hurdat_epa EP031976 11.2000 -130.200 TD 30 -1 11.2000 -130.200 TC 30 11.2000 -130.200 1 30 9 283
1976197N11252 1976 71 EP MM CELESTE 1976-07-18 03:00:00 TS 11.3658 -130.946 main 2463 2463 P________PP___ EP031976 11.3705 -130.930 TD 30 -1 11.3705 -130.930 TC 30 11.3467 -131.009 1 28 17 283
1976197N11252 1976 71 EP MM CELESTE 1976-07-18 06:00:00 TS 11.5874 -131.880 30 hurdat_epa main 2518 2518 O________OP___ hurdat_epa EP031976 11.6000 -131.900 TD 30 -1 11.6000 -131.900 TC 30 11.5370 -131.798 1 27 17 284
1976197N11252 1976 71 EP MM CELESTE 1976-07-18 09:00:00 TS 11.7852 -132.653 main 2516 2437 P________PP___ EP031976 11.7918 -132.663 TD 27 -1 11.7918 -132.663 TC 27 11.7589 -132.613 1 26 16 285
1976197N11252 1976 71 EP MM CELESTE 1976-07-18 12:00:00 TS 12.0000 -133.500 25 hurdat_epa main 2427 2318 O________OO___ hurdat_epa EP031976 12.0000 -133.500 TD 25 -1 12.0000 -133.500 TC 25 12.0000 -133.500 1 25 19 284
1976197N11252 1976 71 EP MM CELESTE 1976-07-18 15:00:00 TS 12.2438 -134.543 main 2318 2195 P________PP___ EP031976 12.2425 -134.555 TD 25 -1 12.2425 -134.555 TC 25 12.2489 -134.494 1 25 22 283
1976197N11252 1976 71 EP MM CELESTE 1976-07-18 18:00:00 TS 12.5001 -135.681 25 hurdat_epa main 2185 2066 O________OP___ hurdat_epa EP031976 12.5000 -135.700 TD 25 -1 12.5000 -135.700 TC 25 12.5005 -135.578 1 25 23 283
1976197N11252 1976 71 EP MM CELESTE 1976-07-18 21:00:00 TS 12.7638 -136.858 main 2052 1944 P________PP___ EP031976 12.7653 -136.875 TD 25 -1 12.7653 -136.875 TC 25 12.7519 -136.723 1 25 22 283
1976197N11252 1976 71 EP MM CELESTE 1976-07-19 00:00:00 TS 13.0000 -137.900 25 hurdat_epa main 1944 1865 O________OO___ hurdat_epa EP031976 13.0000 -137.900 TD 25 -1 13.0000 -137.900 TC 25 13.0000 -137.900 1 25 18 283
1976197N11252 1976 71 EP MM CELESTE 1976-07-19 03:00:00 TS 13.1720 -138.635 main 1865 1811 P________P____ EP031976 13.1720 -138.635 TD 25 -1 13.1720 -138.635 TC 25 1 12 284
1976197N11252 1976 71 EP MM CELESTE 1976-07-19 06:00:00 ET 13.3000 -139.100 25 hurdat_epa main 1811 1787 O________O____ hurdat_epa EP031976 13.3000 -139.100 ET 25 -4 13.3000 -139.100 25 1 7 288
1976197N11252 1976 71 EP MM CELESTE 1976-07-19 09:00:00 ET 13.4051 -139.355 main 1777 1763 P________P____ EP031976 13.4051 -139.355 ET 22 -4 13.4051 -139.355 22 1 4 297
1976197N11252 1976 71 EP MM CELESTE 1976-07-19 12:00:00 ET 13.5000 -139.500 20 hurdat_epa main 1763 O________O____ hurdat_epa EP031976 13.5000 -139.500 ET 20 -4 13.5000 -139.500 20 3 303

About IBTrACS Database

This database is a web-friendly format of International Best Track Archive for Climate Stewardship (IBTrACS), a global best track data archive curated by NOAA dating back to 1842.

Updated: 2021-10-21